Time;durP1;ratioP1;P1;durP2;ratioP2;P2;SDS_P1;SDS_P2;PMS_P1;PMS_P2;Temp;Humidity;BMP_temperature;BMP_pressure;BME280_temperature;BME280_humidity;BME280_pressure;Samples;Min_cycle;Max_cycle;Signal;HPM_P1;HPM_P2
2023/07/31 00:00:56;;;;;;;22.50;8.93;;;;;;;15.81;100.00;100993.56;5099927;28;20484;-52
2023/07/31 00:03:21;;;;;;;23.10;8.35;;;;;;;15.82;100.00;101003.28;5095322;28;20107;-53
2023/07/31 00:05:47;;;;;;;24.80;7.63;;;;;;;15.82;100.00;101001.47;5100175;28;20052;-53
2023/07/31 00:08:12;;;;;;;22.23;9.07;;;;;;;15.81;100.00;101001.63;5093483;28;20473;-52
2023/07/31 00:10:37;;;;;;;16.67;7.55;;;;;;;15.80;100.00;101000.75;5095888;28;20024;-52
2023/07/31 00:13:03;;;;;;;19.35;7.65;;;;;;;15.80;100.00;101008.78;5098777;28;20032;-53
2023/07/31 00:15:28;;;;;;;21.88;7.75;;;;;;;15.78;100.00;101000.06;5095730;28;20024;-52
2023/07/31 00:17:54;;;;;;;22.98;7.82;;;;;;;15.77;100.00;101006.44;5096652;28;20039;-52
2023/07/31 00:20:19;;;;;;;18.73;6.57;;;;;;;15.76;100.00;100996.69;5095938;28;20032;-52
2023/07/31 00:22:44;;;;;;;20.65;7.13;;;;;;;15.77;100.00;101002.88;5099108;28;20097;-52
2023/07/31 00:25:10;;;;;;;22.17;7.15;;;;;;;15.76;100.00;101002.06;5091942;28;20024;-52
2023/07/31 00:27:35;;;;;;;19.85;6.97;;;;;;;15.74;100.00;100995.97;5091849;28;20023;-52
2023/07/31 00:30:00;;;;;;;16.55;6.65;;;;;;;15.77;100.00;100997.53;5097511;28;20028;-52
2023/07/31 00:32:25;;;;;;;18.80;7.03;;;;;;;15.75;100.00;100994.97;5097176;28;20526;-52
2023/07/31 00:34:52;;;;;;;21.63;7.28;;;;;;;15.75;100.00;100992.28;5102135;28;20032;-52
2023/07/31 00:37:17;;;;;;;19.02;7.10;;;;;;;15.73;100.00;100995.09;5097720;28;20416;-52
2023/07/31 00:39:42;;;;;;;18.08;7.32;;;;;;;15.75;100.00;100991.44;5103575;28;20027;-51
2023/07/31 00:42:08;;;;;;;20.98;6.88;;;;;;;15.75;100.00;100991.44;5099541;28;20122;-52
2023/07/31 00:44:33;;;;;;;16.25;6.88;;;;;;;15.73;100.00;100995.09;5103891;28;20117;-52
2023/07/31 00:46:59;;;;;;;22.38;7.78;;;;;;;15.74;100.00;100995.97;5103117;28;20582;-52
2023/07/31 00:49:25;;;;;;;21.58;7.43;;;;;;;15.73;100.00;100989.75;5099916;28;20031;-52
2023/07/31 00:51:50;;;;;;;25.55;7.63;;;;;;;15.71;100.00;100988.22;5093872;28;20023;-51
2023/07/31 00:54:16;;;;;;;19.13;6.93;;;;;;;15.72;100.00;100988.09;5104836;28;20073;-52
2023/07/31 00:56:44;;;;;;;19.88;6.20;;;;;;;15.72;100.00;100982.72;5098018;28;20024;-52
2023/07/31 00:59:10;;;;;;;17.42;7.18;;;;;;;15.71;100.00;100981.03;5098899;28;20411;-54
2023/07/31 01:01:35;;;;;;;22.15;7.07;;;;;;;15.71;100.00;100980.19;5101966;28;20062;-51
2023/07/31 01:04:00;;;;;;;22.30;7.15;;;;;;;15.71;100.00;100981.03;5104314;28;20017;-50
2023/07/31 01:06:33;;;;;;;21.00;7.13;;;;;;;15.71;100.00;100973.00;5101094;28;20024;-51
2023/07/31 01:09:04;;;;;;;14.10;6.57;;;;;;;15.71;100.00;100978.34;5101173;28;20039;-51
2023/07/31 01:11:42;;;;;;;13.25;6.30;;;;;;;15.70;100.00;100982.03;5102734;28;20525;-52
2023/07/31 01:14:08;;;;;;;18.33;6.67;;;;;;;15.69;100.00;100980.34;5096276;28;20035;-52
2023/07/31 01:16:33;;;;;;;15.10;6.78;;;;;;;15.68;100.00;100975.97;5098373;28;20270;-52
2023/07/31 01:18:58;;;;;;;20.05;6.70;;;;;;;15.69;100.00;100971.47;5101783;27;20028;-51
2023/07/31 01:21:36;;;;;;;17.23;6.50;;;;;;;15.68;100.00;100978.66;5098574;28;20020;-51
2023/07/31 01:24:23;;;;;;;17.77;5.95;;;;;;;15.69;100.00;100979.50;5099358;28;20424;-52
2023/07/31 01:27:13;;;;;;;20.55;6.63;;;;;;;15.69;100.00;100968.78;5098774;28;20472;-50
2023/07/31 01:29:53;;;;;;;21.75;6.53;;;;;;;15.67;100.00;100976.09;5100963;28;20438;-51
2023/07/31 01:32:19;;;;;;;18.13;6.43;;;;;;;15.64;100.00;100977.25;5098804;28;20497;-51
2023/07/31 01:34:46;;;;;;;14.90;6.18;;;;;;;15.66;100.00;100971.75;5100389;28;20028;-54
2023/07/31 01:37:11;;;;;;;22.98;6.82;;;;;;;15.65;100.00;100981.59;5097727;28;20055;-52
2023/07/31 01:39:37;;;;;;;22.52;6.28;;;;;;;15.63;100.00;100972.88;5102525;28;20105;-51
2023/07/31 01:42:02;;;;;;;17.80;6.32;;;;;;;15.61;100.00;100972.19;5101937;28;20151;-52
2023/07/31 01:44:28;;;;;;;18.85;6.47;;;;;;;15.61;100.00;100969.53;5097054;28;20103;-52
2023/07/31 01:46:53;;;;;;;16.83;6.22;;;;;;;15.59;100.00;100970.66;5092739;28;20086;-52
2023/07/31 01:49:18;;;;;;;20.65;6.80;;;;;;;15.55;100.00;100975.47;5101443;28;20016;-50
2023/07/31 01:51:44;;;;;;;18.92;6.63;;;;;;;15.54;100.00;100973.78;5097324;28;20110;-51
2023/07/31 01:54:09;;;;;;;19.80;6.72;;;;;;;15.53;100.00;100969.41;5102984;28;20024;-51
2023/07/31 01:56:34;;;;;;;17.48;6.90;;;;;;;15.51;100.00;100961.53;5099263;27;20381;-51
2023/07/31 01:59:00;;;;;;;16.67;6.03;;;;;;;15.51;100.00;100960.69;5097605;28;20034;-54
2023/07/31 02:01:25;;;;;;;20.85;6.93;;;;;;;15.49;100.00;100952.81;5094540;28;20023;-51
2023/07/31 02:03:50;;;;;;;16.27;6.87;;;;;;;15.48;100.00;100945.75;5098662;28;20024;-52
2023/07/31 02:06:16;;;;;;;20.45;6.78;;;;;;;15.46;100.00;100942.38;5095344;28;20274;-50
2023/07/31 02:08:41;;;;;;;16.17;7.07;;;;;;;15.45;100.00;100942.53;5099533;28;20374;-52
2023/07/31 02:11:06;;;;;;;20.77;7.10;;;;;;;15.44;100.00;100938.19;5095729;28;20523;-52
2023/07/31 02:13:32;;;;;;;19.85;7.47;;;;;;;15.43;100.00;100939.16;5098674;28;20111;-52
2023/07/31 02:15:57;;;;;;;17.80;6.55;;;;;;;15.41;100.00;100935.81;5098397;28;20130;-52
2023/07/31 02:18:23;;;;;;;22.30;7.32;;;;;;;15.38;100.00;100928.91;5101155;28;20035;-51
2023/07/31 02:20:52;;;;;;;18.42;6.53;;;;;;;15.36;100.00;100929.03;5097511;28;20024;-52
2023/07/31 02:23:20;;;;;;;16.95;6.10;;;;;;;15.37;100.00;100932.59;5101114;28;20028;-51
2023/07/31 02:25:46;;;;;;;17.23;6.68;;;;;;;15.34;100.00;100919.50;5097095;28;20065;-54
2023/07/31 02:28:11;;;;;;;14.82;7.05;;;;;;;15.35;100.00;100926.50;5100297;28;20063;-52
2023/07/31 02:30:37;;;;;;;23.67;7.18;;;;;;;15.34;100.00;100920.31;5095122;28;20553;-51
2023/07/31 02:33:02;;;;;;;13.00;6.30;;;;;;;15.35;100.00;100921.16;5093535;28;20039;-52
2023/07/31 02:35:28;;;;;;;21.10;7.13;;;;;;;15.33;100.00;100918.63;5097233;28;20022;-51
2023/07/31 02:37:53;;;;;;;18.30;7.78;;;;;;;15.32;100.00;100922.31;5098598;28;20060;-52
2023/07/31 02:40:18;;;;;;;20.75;7.65;;;;;;;15.30;100.00;100910.88;5100358;28;20122;-52
2023/07/31 02:42:44;;;;;;;22.77;7.25;;;;;;;15.29;100.00;100903.88;5103327;28;20048;-52
2023/07/31 02:45:09;;;;;;;17.75;7.60;;;;;;;15.27;100.00;100903.19;5094903;28;20027;-53
2023/07/31 02:47:35;;;;;;;15.95;6.75;;;;;;;15.28;100.00;100909.38;5094451;28;20100;-52
2023/07/31 02:50:01;;;;;;;17.75;6.75;;;;;;;15.26;100.00;100904.16;5098858;28;20031;-52
2023/07/31 02:52:26;;;;;;;19.25;6.95;;;;;;;15.25;100.00;100907.81;5100306;28;20042;-51
2023/07/31 02:54:52;;;;;;;20.77;7.50;;;;;;;15.25;100.00;100905.13;5097676;28;20019;-50
2023/07/31 02:57:17;;;;;;;19.08;6.78;;;;;;;15.24;100.00;100907.94;5097602;28;20392;-51
2023/07/31 02:59:42;;;;;;;19.60;7.30;;;;;;;15.23;100.00;100911.63;5097637;28;20030;-52
2023/07/31 03:02:08;;;;;;;14.15;6.20;;;;;;;15.23;100.00;100901.78;5099995;28;20466;-51
2023/07/31 03:04:33;;;;;;;20.08;7.07;;;;;;;15.22;100.00;100904.59;5095606;28;20028;-55
2023/07/31 03:06:58;;;;;;;18.75;6.93;;;;;;;15.22;100.00;100900.09;5100581;28;20171;-51
2023/07/31 03:09:24;;;;;;;20.70;6.63;;;;;;;15.22;100.00;100899.25;5097529;28;20023;-52
2023/07/31 03:11:49;;;;;;;15.70;6.68;;;;;;;15.22;100.00;100901.91;5101880;28;20443;-52
2023/07/31 03:14:14;;;;;;;16.63;6.70;;;;;;;15.21;100.00;100900.25;5094201;28;20118;-51
2023/07/31 03:16:39;;;;;;;25.73;7.53;;;;;;;15.22;100.00;100909.94;5093585;28;20116;-51
2023/07/31 03:19:05;;;;;;;14.82;6.50;;;;;;;15.21;100.00;100898.41;5099144;28;20478;-51
2023/07/31 03:21:30;;;;;;;16.60;6.57;;;;;;;15.21;100.00;100898.41;5097145;28;20166;-52
2023/07/31 03:23:55;;;;;;;19.50;6.87;;;;;;;15.21;100.00;100909.09;5097013;28;20016;-52
2023/07/31 03:26:21;;;;;;;19.42;6.90;;;;;;;15.20;100.00;100894.03;5099100;28;20277;-54
2023/07/31 03:28:46;;;;;;;24.42;6.80;;;;;;;15.22;100.00;100896.56;5089613;28;20020;-52
2023/07/31 03:31:11;;;;;;;19.77;6.32;;;;;;;15.20;100.00;100891.34;5099688;28;20409;-51
2023/07/31 03:33:37;;;;;;;24.73;7.13;;;;;;;15.20;100.00;100887.84;5091867;28;20078;-51
2023/07/31 03:36:02;;;;;;;14.95;6.47;;;;;;;15.18;100.00;100885.31;5100906;28;20028;-51
2023/07/31 03:38:28;;;;;;;17.80;6.63;;;;;;;15.17;100.00;100870.25;5098644;28;20027;-51
2023/07/31 03:40:53;;;;;;;19.77;6.50;;;;;;;15.21;100.00;100877.00;5101264;28;20107;-51
2023/07/31 03:43:18;;;;;;;15.43;6.25;;;;;;;15.21;100.00;100873.50;5101586;28;20131;-52
2023/07/31 03:45:44;;;;;;;19.85;6.93;;;;;;;15.22;100.00;100873.34;5099408;28;20034;-54
2023/07/31 03:48:09;;;;;;;20.10;6.53;;;;;;;15.23;100.00;100861.63;5095198;28;20020;-51
2023/07/31 03:50:34;;;;;;;17.48;6.15;;;;;;;15.24;100.00;100855.31;5094309;28;20024;-52
2023/07/31 03:53:00;;;;;;;16.65;6.78;;;;;;;15.25;100.00;100865.00;5088910;28;20036;-51
2023/07/31 03:55:25;;;;;;;17.63;6.50;;;;;;;15.26;100.00;100860.50;5099353;28;20031;-51
2023/07/31 03:57:51;;;;;;;16.75;6.13;;;;;;;15.26;100.00;100858.66;5096557;28;20466;-52
2023/07/31 04:00:16;;;;;;;18.23;6.43;;;;;;;15.26;100.00;100853.31;5101427;28;20030;-51
2023/07/31 04:02:41;;;;;;;19.92;6.38;;;;;;;15.28;100.00;100848.66;5097057;28;20107;-51
2023/07/31 04:05:07;;;;;;;19.63;6.65;;;;;;;15.30;100.00;100843.97;5093205;28;20025;-55
2023/07/31 04:07:33;;;;;;;19.58;6.55;;;;;;;15.31;100.00;100839.50;5098062;28;20024;-51
2023/07/31 04:10:00;;;;;;;18.77;7.00;;;;;;;15.30;100.00;100837.81;5096468;28;20035;-52
2023/07/31 04:12:25;;;;;;;18.02;6.40;;;;;;;15.33;100.00;100841.03;5095766;28;20070;-54
2023/07/31 04:14:51;;;;;;;18.50;6.78;;;;;;;15.34;100.00;100836.53;5090799;28;20389;-54
2023/07/31 04:17:17;;;;;;;17.55;5.90;;;;;;;15.36;100.00;100834.53;5091430;28;20038;-55
2023/07/31 04:19:43;;;;;;;14.50;6.43;;;;;;;15.38;100.00;100835.22;5095760;28;20020;-54
2023/07/31 04:22:08;;;;;;;20.05;6.65;;;;;;;15.40;100.00;100827.06;5096249;28;20127;-52
2023/07/31 04:24:33;;;;;;;15.00;6.13;;;;;;;15.42;100.00;100825.91;5098157;28;20347;-54
2023/07/31 04:26:59;;;;;;;13.30;6.13;;;;;;;15.45;100.00;100830.13;5093976;28;20032;-52
2023/07/31 04:29:24;;;;;;;19.80;6.70;;;;;;;15.47;100.00;100830.81;5088769;28;20466;-53
2023/07/31 04:31:49;;;;;;;20.50;6.53;;;;;;;15.46;100.00;100818.44;5093307;28;20067;-52
2023/07/31 04:34:14;;;;;;;20.80;6.70;;;;;;;15.49;100.00;100823.50;5096918;28;20062;-51
2023/07/31 04:36:40;;;;;;;16.90;6.30;;;;;;;15.50;100.00;100812.63;5095610;28;20039;-51
2023/07/31 04:39:05;;;;;;;16.58;6.55;;;;;;;15.52;100.00;100809.78;5096243;28;20032;-52
2023/07/31 04:41:31;;;;;;;18.05;6.18;;;;;;;15.54;100.00;100815.84;5092389;28;20062;-54
2023/07/31 04:43:56;;;;;;;19.02;6.20;;;;;;;15.56;100.00;100805.00;5098485;28;20016;-54
2023/07/31 04:46:21;;;;;;;18.58;6.70;;;;;;;15.57;100.00;100802.16;5094933;28;20066;-53
2023/07/31 04:48:46;;;;;;;15.57;6.10;;;;;;;15.56;100.00;100799.63;5095899;28;20076;-53
2023/07/31 04:51:12;;;;;;;21.23;7.15;;;;;;;15.59;100.00;100789.47;5097679;28;20032;-54
2023/07/31 04:53:37;;;;;;;15.38;6.13;;;;;;;15.61;100.00;100797.34;5099312;28;20389;-52
2023/07/31 04:56:03;;;;;;;15.93;6.15;;;;;;;15.62;100.00;100794.53;5098414;28;20070;-53
2023/07/31 04:58:28;;;;;;;16.85;7.15;;;;;;;15.64;100.00;100795.19;5097789;28;20448;-51
2023/07/31 05:00:53;;;;;;;18.67;6.55;;;;;;;15.65;100.00;100788.84;5090670;28;20024;-51
2023/07/31 05:03:19;;;;;;;13.85;6.03;;;;;;;15.65;100.00;100791.50;5095266;28;20020;-51
2023/07/31 05:05:44;;;;;;;18.23;6.80;;;;;;;15.68;100.00;100790.38;5099228;28;20016;-53
2023/07/31 05:08:09;;;;;;;18.02;6.78;;;;;;;15.70;100.00;100791.91;5094852;28;20400;-52
2023/07/31 05:10:35;;;;;;;21.23;6.43;;;;;;;15.69;100.00;100787.56;5096598;28;20104;-52
2023/07/31 05:13:00;;;;;;;15.13;6.40;;;;;;;15.70;100.00;100780.34;5099600;28;20032;-53
2023/07/31 05:15:25;;;;;;;12.77;6.43;;;;;;;15.72;100.00;100787.25;5094565;28;20024;-55
2023/07/31 05:17:50;;;;;;;14.45;6.05;;;;;;;15.73;100.00;100786.25;5096287;28;20023;-55
2023/07/31 05:20:16;;;;;;;17.75;6.50;;;;;;;15.72;100.00;100779.22;5098955;28;20154;-53
2023/07/31 05:22:41;;;;;;;13.32;6.05;;;;;;;15.75;100.00;100783.41;5099264;28;20490;-52
2023/07/31 05:25:07;;;;;;;13.77;5.75;;;;;;;15.75;100.00;100783.41;5099351;28;20364;-52
2023/07/31 05:27:32;;;;;;;12.63;5.75;;;;;;;15.74;100.00;100779.06;5098628;28;20027;-53
2023/07/31 05:29:58;;;;;;;14.00;6.03;;;;;;;15.77;100.00;100785.97;5097837;28;20024;-55
2023/07/31 05:32:23;;;;;;;13.13;5.22;;;;;;;15.75;100.00;100785.25;5100106;28;20028;-52
2023/07/31 05:34:51;;;;;;;13.18;6.00;;;;;;;15.73;100.00;100780.88;5097490;28;20583;-53
2023/07/31 05:37:17;;;;;;;10.43;5.63;;;;;;;15.74;100.00;100781.75;5093736;28;20489;-53
2023/07/31 05:39:42;;;;;;;13.35;5.38;;;;;;;15.72;100.00;100776.53;5094419;28;20046;-55
2023/07/31 05:42:07;;;;;;;11.07;5.05;;;;;;;15.74;100.00;100768.34;5094464;28;20056;-52
2023/07/31 05:44:34;;;;;;;6.97;4.50;;;;;;;15.73;100.00;100772.00;5093268;28;20035;-54
2023/07/31 05:46:59;;;;;;;8.20;5.07;;;;;;;15.72;100.00;100764.97;5102306;28;20564;-53
2023/07/31 05:49:25;;;;;;;7.35;4.10;;;;;;;15.72;100.00;100765.81;5097279;28;20103;-52
2023/07/31 05:51:50;;;;;;;9.27;4.63;;;;;;;15.70;100.00;100762.47;5098259;28;20116;-52
2023/07/31 05:54:15;;;;;;;8.05;4.30;;;;;;;15.70;100.00;100767.81;5096049;28;20054;-56
2023/07/31 05:56:41;;;;;;;9.85;4.65;;;;;;;15.73;100.00;100758.63;5102345;28;20111;-55
2023/07/31 05:59:06;;;;;;;7.53;3.95;;;;;;;15.73;100.00;100755.94;5101230;28;20031;-53
2023/07/31 06:01:31;;;;;;;5.60;4.20;;;;;;;15.72;100.00;100752.44;5094671;27;20059;-52
2023/07/31 06:03:57;;;;;;;6.25;4.07;;;;;;;15.72;100.00;100755.13;5096329;28;20024;-52
2023/07/31 06:06:22;;;;;;;6.47;4.15;;;;;;;15.72;100.00;100751.56;5094387;28;20031;-51
2023/07/31 06:08:47;;;;;;;6.38;3.85;;;;;;;15.73;100.00;100758.63;5096423;28;20032;-51
2023/07/31 06:11:13;;;;;;;6.10;3.40;;;;;;;15.73;100.00;100755.94;5086868;28;20071;-54
2023/07/31 06:13:38;;;;;;;6.60;3.80;;;;;;;15.73;100.00;100753.28;5088721;28;20030;-52
2023/07/31 06:16:06;;;;;;;6.85;3.72;;;;;;;15.72;100.00;100744.41;5092556;28;20378;-54
2023/07/31 06:18:32;;;;;;;5.60;3.60;;;;;;;15.70;100.00;100735.69;5093158;28;20118;-52
2023/07/31 06:20:58;;;;;;;5.38;3.47;;;;;;;15.74;100.00;100744.25;5093325;28;20038;-52
2023/07/31 06:23:23;;;;;;;6.80;3.92;;;;;;;15.76;100.00;100747.66;5093014;28;20103;-51
2023/07/31 06:25:48;;;;;;;7.78;3.85;;;;;;;15.77;100.00;100735.09;5089458;28;20120;-51
2023/07/31 06:28:14;;;;;;;5.78;3.92;;;;;;;15.79;100.00;100743.84;5094828;28;20055;-53
2023/07/31 06:30:39;;;;;;;6.65;3.95;;;;;;;15.80;100.00;100738.28;5094804;28;20023;-53
2023/07/31 06:33:04;;;;;;;7.43;4.35;;;;;;;15.81;100.00;100728.44;5093909;28;20035;-52
2023/07/31 06:35:30;;;;;;;7.10;4.53;;;;;;;15.81;100.00;100734.63;5091577;28;20070;-51
2023/07/31 06:37:55;;;;;;;7.55;4.57;;;;;;;15.83;100.00;100732.63;5092690;28;20077;-51
2023/07/31 06:40:22;;;;;;;6.07;4.35;;;;;;;15.85;100.00;100737.84;5092207;28;20457;-51
2023/07/31 06:42:47;;;;;;;6.00;4.53;;;;;;;15.88;100.00;100726.81;5095317;28;20127;-52
2023/07/31 06:45:12;;;;;;;6.55;4.65;;;;;;;15.88;100.00;100726.81;5092780;28;20103;-52
2023/07/31 06:47:37;;;;;;;6.65;4.47;;;;;;;15.91;100.00;100727.34;5096931;28;20024;-52
2023/07/31 06:50:03;;;;;;;6.25;4.20;;;;;;;15.91;100.00;100723.84;5096544;28;20055;-52
2023/07/31 06:52:28;;;;;;;8.55;4.78;;;;;;;15.91;100.00;100726.50;5096325;28;20028;-53
2023/07/31 06:55:18;;;;;;;5.57;4.32;;;;;;;15.92;100.00;100717.50;5091469;28;20414;-51
2023/07/31 06:57:43;;;;;;;5.10;4.20;;;;;;;15.92;100.00;100717.50;5090317;28;20059;-52
2023/07/31 07:00:09;;;;;;;6.43;4.18;;;;;;;15.92;100.00;100714.81;5099005;28;20020;-53
2023/07/31 07:02:35;;;;;;;6.85;4.50;;;;;;;15.93;100.00;100716.47;5099563;28;20038;-52
2023/07/31 07:05:00;;;;;;;4.90;4.00;;;;;;;15.94;100.00;100718.19;5090375;28;20024;-53
2023/07/31 07:07:26;;;;;;;5.95;4.00;;;;;;;15.98;100.00;100713.34;5096754;28;20535;-52
2023/07/31 07:09:51;;;;;;;9.13;4.38;;;;;;;16.00;100.00;100708.66;5098216;28;20385;-52
2023/07/31 07:12:17;;;;;;;6.22;4.45;;;;;;;16.02;100.00;100703.97;5091693;28;20028;-54
2023/07/31 07:14:42;;;;;;;4.45;3.95;;;;;;;16.05;100.00;100704.53;5095003;28;20050;-55
2023/07/31 07:17:07;;;;;;;5.78;3.80;;;;;;;16.06;100.00;100708.03;5097601;28;20054;-54
2023/07/31 07:19:33;;;;;;;4.80;3.75;;;;;;;16.06;100.00;100695.47;5092847;28;20035;-54
2023/07/31 07:22:01;;;;;;;4.75;3.95;;;;;;;16.07;100.00;100704.34;5094623;28;20393;-53
2023/07/31 07:24:26;;;;;;;5.50;3.90;;;;;;;16.08;100.00;100700.69;5095674;28;20038;-54
2023/07/31 07:26:51;;;;;;;6.82;3.83;;;;;;;16.09;100.00;100691.66;5091145;28;20044;-52
2023/07/31 07:29:17;;;;;;;7.25;4.07;;;;;;;16.11;100.00;100691.50;5100206;28;20487;-52
2023/07/31 07:31:42;;;;;;;5.80;4.32;;;;;;;16.14;100.00;100693.84;5094388;28;20556;-55
2023/07/31 07:34:07;;;;;;;5.13;4.10;;;;;;;16.13;100.00;100693.00;5094259;28;20030;-53
2023/07/31 07:36:33;;;;;;;7.40;4.63;;;;;;;16.14;100.00;100697.38;5096965;28;20485;-57
2023/07/31 07:38:58;;;;;;;6.35;4.93;;;;;;;16.15;100.00;100708.94;5092362;28;20045;-56
2023/07/31 07:41:23;;;;;;;6.95;4.82;;;;;;;16.15;100.00;100708.94;5090623;28;20060;-56
2023/07/31 07:43:49;;;;;;;7.30;4.55;;;;;;;16.16;100.00;100706.09;5089631;28;20031;-56
2023/07/31 07:46:14;;;;;;;10.93;5.18;;;;;;;16.17;100.00;100699.75;5099740;28;20132;-54
2023/07/31 07:48:39;;;;;;;6.32;5.10;;;;;;;16.20;100.00;100698.56;5094090;28;20425;-55
2023/07/31 07:51:05;;;;;;;9.75;5.50;;;;;;;16.19;100.00;100704.94;5089207;28;20039;-55
2023/07/31 07:53:30;;;;;;;6.10;4.65;;;;;;;16.21;100.00;100690.38;5090727;28;20027;-56
2023/07/31 07:55:56;;;;;;;10.02;5.32;;;;;;;16.21;100.00;100690.38;5093830;28;20138;-57
2023/07/31 07:58:21;;;;;;;10.48;5.15;;;;;;;16.22;100.00;100686.72;5092761;28;20111;-55
2023/07/31 08:00:53;;;;;;;8.65;5.30;;;;;;;16.22;100.00;100696.56;5097849;28;20114;-54
2023/07/31 08:03:18;;;;;;;9.55;5.68;;;;;;;16.22;100.00;100694.75;5093607;28;20416;-52
2023/07/31 08:05:44;;;;;;;9.30;5.32;;;;;;;16.22;100.00;100694.75;5093307;28;20015;-52
2023/07/31 08:08:15;;;;;;;10.52;5.50;;;;;;;16.25;100.00;100693.59;5092046;28;20091;-54
2023/07/31 08:10:40;;;;;;;7.28;5.00;;;;;;;16.30;100.00;100690.44;5091817;28;20481;-48
2023/07/31 08:13:06;;;;;;;13.10;5.93;;;;;;;16.32;100.00;100688.44;5096948;28;20079;-52
2023/07/31 08:15:31;;;;;;;8.93;5.93;;;;;;;16.34;100.00;100697.19;5098062;28;20127;-49
2023/07/31 08:17:56;;;;;;;9.40;5.28;;;;;;;16.34;100.00;100684.59;5093489;28;20047;-49
2023/07/31 08:20:21;;;;;;;8.65;5.68;;;;;;;16.32;100.00;100688.44;5092891;28;20055;-49
2023/07/31 08:22:47;;;;;;;8.55;5.15;;;;;;;16.34;100.00;100687.28;5093853;28;20435;-49
2023/07/31 08:25:12;;;;;;;6.70;5.43;;;;;;;16.33;100.00;100685.59;5100440;28;20028;-49
2023/07/31 08:27:37;;;;;;;8.50;5.70;;;;;;;16.30;100.00;100688.59;5098186;28;20452;-50
2023/07/31 08:30:03;;;;;;;9.57;6.00;;;;;;;16.30;100.00;100685.91;5098846;28;20028;-49
2023/07/31 08:32:28;;;;;;;9.77;5.47;;;;;;;16.32;100.00;100689.28;5078659;28;20085;-49
2023/07/31 08:34:54;;;;;;;10.43;5.85;;;;;;;16.37;100.00;100683.44;5071566;28;20024;-49
2023/07/31 08:37:19;;;;;;;9.70;5.43;;;;;;;16.38;100.00;100685.13;5095804;28;20027;-50
2023/07/31 08:39:44;;;;;;;10.20;5.80;;;;;;;16.40;100.00;100686.66;5094468;28;20036;-51
2023/07/31 08:42:10;;;;;;;9.70;5.88;;;;;;;16.41;100.00;100687.47;5091396;28;20044;-50
2023/07/31 08:44:36;;;;;;;10.85;5.60;;;;;;;16.39;100.00;100689.50;5087864;28;20047;-49
2023/07/31 08:47:01;;;;;;;7.65;5.70;;;;;;;16.37;100.00;100686.97;5094530;28;20056;-48
2023/07/31 08:49:29;;;;;;;11.23;5.85;;;;;;;16.37;100.00;100678.06;5090850;28;20448;-48
2023/07/31 08:51:55;;;;;;;10.55;5.90;;;;;;;16.40;100.00;100685.78;5096002;28;20115;-49
2023/07/31 08:54:20;;;;;;;11.20;6.07;;;;;;;16.38;100.00;100680.59;5098572;27;20539;-49
2023/07/31 08:56:46;;;;;;;8.32;6.63;;;;;;;16.38;100.00;100677.91;5097957;28;20035;-50
2023/07/31 08:59:14;;;;;;;8.98;6.32;;;;;;;16.37;100.00;100670.88;5100622;28;20028;-49
2023/07/31 09:01:47;;;;;;;9.77;5.95;;;;;;;16.42;100.00;100673.06;5097751;28;20027;-49
2023/07/31 09:04:14;;;;;;;13.63;6.50;;;;;;;16.45;100.00;100676.28;5098697;28;20597;-49
2023/07/31 09:06:40;;;;;;;10.60;6.60;;;;;;;16.51;100.00;100685.53;5092700;28;20054;-49
2023/07/31 09:09:06;;;;;;;12.50;6.35;;;;;;;16.56;100.00;100685.03;5089446;28;20065;-49
2023/07/31 09:11:31;;;;;;;12.70;6.25;;;;;;;16.60;100.00;100686.41;5094153;28;20486;-49
2023/07/31 09:13:57;;;;;;;11.85;6.07;;;;;;;16.62;100.00;100679.03;5089123;28;20036;-49
2023/07/31 09:16:31;;;;;;;12.68;6.32;;;;;;;16.63;100.00;100683.41;5088345;28;20039;-49
2023/07/31 09:18:58;;;;;;;10.55;5.78;;;;;;;16.63;100.00;100675.34;5095009;28;20027;-49
2023/07/31 09:21:25;;;;;;;11.43;5.88;;;;;;;16.66;100.00;100672.34;5099853;28;20035;-49
2023/07/31 09:23:56;;;;;;;10.30;6.07;;;;;;;16.68;100.00;100672.19;5095377;28;20031;-49
2023/07/31 09:26:36;;;;;;;8.88;5.97;;;;;;;16.71;100.00;100666.50;5095770;28;20032;-48
2023/07/31 09:29:05;;;;;;;11.57;6.28;;;;;;;16.74;100.00;100666.19;5088602;28;20102;-49
2023/07/31 09:31:41;;;;;;;9.00;5.97;;;;;;;16.77;100.00;100660.47;5089485;28;20031;-50
2023/07/31 09:34:07;;;;;;;9.63;5.72;;;;;;;16.80;100.00;100669.06;5087512;28;20063;-48
2023/07/31 09:36:39;;;;;;;12.10;6.13;;;;;;;16.85;100.00;100662.38;5095288;28;20060;-49
2023/07/31 09:39:04;;;;;;;8.63;5.72;;;;;;;16.88;100.00;100662.06;5093005;28;20040;-49
2023/07/31 09:41:31;;;;;;;11.45;6.13;;;;;;;16.90;100.00;100665.41;5081588;28;20036;-48
2023/07/31 09:43:56;;;;;;;11.48;6.03;;;;;;;16.91;100.00;100659.06;5101974;28;20462;-50
2023/07/31 09:46:21;;;;;;;9.65;6.00;;;;;;;16.91;100.00;100659.88;5096725;28;20055;-48
2023/07/31 09:48:47;;;;;;;8.43;5.85;;;;;;;16.90;100.00;100652.84;5096096;28;20036;-48
2023/07/31 09:51:12;;;;;;;10.68;5.38;;;;;;;16.92;100.00;100650.84;5098175;28;20137;-49
2023/07/31 09:53:38;;;;;;;9.45;5.45;;;;;;;16.96;100.00;100652.19;5100663;28;20028;-49
2023/07/31 09:56:04;;;;;;;8.13;5.25;;;;;;;17.00;100.00;100655.38;5095019;28;20077;-48
2023/07/31 09:58:34;;;;;;;9.00;5.50;;;;;;;16.95;100.00;100650.53;5096587;28;20031;-48
2023/07/31 10:01:01;;;;;;;10.57;5.93;;;;;;;17.03;100.00;100647.00;5095286;28;20047;-50
2023/07/31 10:03:29;;;;;;;8.07;5.20;;;;;;;17.08;100.00;100647.34;5098746;28;20109;-49
2023/07/31 10:05:56;;;;;;;6.95;5.07;;;;;;;17.08;100.00;100641.97;5098015;28;20030;-50
2023/07/31 10:08:29;;;;;;;8.60;5.00;;;;;;;17.11;100.00;100649.69;5100185;28;20028;-50
2023/07/31 10:10:56;;;;;;;8.18;4.72;;;;;;;17.18;100.00;100645.34;5082281;28;20031;-50
2023/07/31 10:13:22;;;;;;;8.27;4.57;;;;;;;17.24;100.00;100641.19;5097289;28;20036;-51
2023/07/31 10:15:48;;;;;;;7.93;4.60;;;;;;;17.29;100.00;100638.81;5091198;28;20024;-49
2023/07/31 10:18:14;;;;;;;9.65;4.35;;;;;;;17.34;100.00;100638.34;5091690;28;20073;-50
2023/07/31 10:20:40;;;;;;;11.23;4.60;;;;;;;17.40;100.00;100629.59;5089809;28;20020;-49
2023/07/31 10:23:06;;;;;;;7.53;4.63;;;;;;;17.43;100.00;100637.31;5094252;28;20035;-49
2023/07/31 10:25:32;;;;;;;12.20;4.85;;;;;;;17.50;100.00;100637.47;5092972;28;20043;-49
2023/07/31 10:27:58;;;;;;;8.90;4.03;;;;;;;17.53;100.00;100635.28;5093426;28;20039;-49
2023/07/31 10:30:30;;;;;;;8.63;4.38;;;;;;;17.58;100.00;100634.78;5089837;28;20031;-49
2023/07/31 10:32:57;;;;;;;9.15;4.22;;;;;;;17.62;100.00;100640.66;5093471;28;20067;-51
2023/07/31 10:35:22;;;;;;;6.90;4.05;;;;;;;17.64;100.00;100642.19;5088361;28;20036;-50
2023/07/31 10:37:48;;;;;;;6.45;3.92;;;;;;;17.68;100.00;100645.38;5092986;28;20039;-50
2023/07/31 10:40:23;;;;;;;5.88;4.13;;;;;;;17.71;100.00;100653.94;5088413;28;20101;-50
2023/07/31 10:42:53;;;;;;;9.32;4.68;;;;;;;17.72;100.00;100638.66;5080829;28;20067;-50
2023/07/31 10:45:26;;;;;;;10.38;4.30;;;;;;;17.78;100.00;100642.50;5078620;28;20111;-50
2023/07/31 10:48:02;;;;;;;5.35;3.95;;;;;;;17.84;100.00;100648.03;5096677;28;20161;-50
2023/07/31 10:50:29;;;;;;;10.93;4.70;;;;;;;17.86;100.00;100654.09;5090727;28;20513;-50
2023/07/31 10:52:56;;;;;;;6.65;4.00;;;;;;;17.89;100.00;100648.41;5093068;28;20115;-49
2023/07/31 10:55:27;;;;;;;8.27;4.18;;;;;;;17.89;100.00;100647.56;5089430;28;20028;-50
2023/07/31 10:57:54;;;;;;;8.38;4.22;;;;;;;17.89;100.00;100643.03;5095637;28;20044;-49
2023/07/31 11:00:29;;;;;;;7.35;4.22;;;;;;;17.95;100.00;100636.13;5091884;28;20339;-49
2023/07/31 11:03:01;;;;;;;6.78;4.07;;;;;;;18.03;100.00;100630.72;5090287;28;20042;-49
2023/07/31 11:05:48;;;;;;;9.02;4.07;;;;;;;18.13;100.00;100630.53;5098515;28;20051;-49
2023/07/31 11:08:24;;;;;;;6.40;4.30;;;;;;;18.22;100.00;100625.97;5095465;28;20092;-50